createdAt,value
2018-10-18T00:01:47.569Z,10.80
2018-10-18T00:04:15.835Z,10.70
2018-10-18T00:06:44.065Z,10.70
2018-10-18T00:09:12.746Z,10.70
2018-10-18T00:11:41.053Z,10.70
2018-10-18T00:14:09.326Z,10.60
2018-10-18T00:16:37.699Z,10.60
2018-10-18T00:19:05.915Z,10.60
2018-10-18T00:21:34.157Z,10.60
2018-10-18T00:24:02.347Z,10.60
2018-10-18T00:26:30.537Z,10.60
2018-10-18T00:28:58.777Z,10.60
2018-10-18T00:31:26.959Z,10.60
2018-10-18T00:33:55.142Z,10.60
2018-10-18T00:36:23.388Z,10.60
2018-10-18T00:38:51.642Z,10.60
2018-10-18T00:41:19.896Z,10.60
2018-10-18T00:43:48.167Z,10.60
2018-10-18T00:46:16.406Z,10.60
2018-10-18T00:48:44.649Z,10.60
2018-10-18T00:51:12.924Z,10.60
2018-10-18T00:53:41.147Z,10.60
2018-10-18T00:56:16.117Z,10.60
2018-10-18T00:58:44.233Z,10.50
2018-10-18T01:01:12.543Z,10.50
2018-10-18T01:03:40.779Z,10.40
2018-10-18T01:06:09.047Z,10.40
2018-10-18T01:08:37.241Z,10.40
2018-10-18T01:11:05.438Z,10.40
2018-10-18T01:13:33.631Z,10.40
2018-10-18T01:16:01.887Z,10.50
2018-10-18T01:18:30.142Z,10.50
2018-10-18T01:20:58.339Z,10.50
2018-10-18T01:23:26.712Z,10.60
2018-10-18T01:25:54.985Z,10.60
2018-10-18T01:28:23.190Z,10.60
2018-10-18T01:30:51.353Z,10.60
2018-10-18T01:33:19.598Z,10.50
2018-10-18T01:35:47.756Z,10.50
2018-10-18T01:38:16.053Z,10.50
2018-10-18T01:40:44.142Z,10.50
2018-10-18T01:43:12.316Z,10.40
2018-10-18T01:45:40.645Z,10.40
2018-10-18T01:48:09.377Z,10.30
2018-10-18T01:50:37.712Z,10.30
2018-10-18T01:53:06.636Z,10.20
2018-10-18T01:55:34.902Z,10.20
2018-10-18T01:58:03.180Z,10.10
2018-10-18T02:00:31.463Z,10.10
2018-10-18T02:02:59.754Z,10.00
2018-10-18T02:05:28.046Z,10.00
2018-10-18T02:07:56.300Z,10.00
2018-10-18T02:10:24.434Z,10.00
2018-10-18T02:12:52.658Z,10.00
2018-10-18T02:15:20.852Z,10.00
2018-10-18T02:17:49.057Z,10.00
2018-10-18T02:20:17.288Z,9.90
2018-10-18T02:22:45.532Z,9.90
2018-10-18T02:25:13.774Z,9.90
2018-10-18T02:27:42.012Z,10.00
2018-10-18T02:30:10.286Z,9.90
2018-10-18T02:32:38.466Z,10.00
2018-10-18T02:35:07.090Z,9.90
2018-10-18T02:37:35.318Z,10.00
2018-10-18T02:40:03.602Z,10.00
2018-10-18T02:42:38.585Z,10.00
2018-10-18T02:45:06.820Z,10.00
2018-10-18T02:47:35.226Z,9.90
2018-10-18T02:50:03.484Z,9.90
2018-10-18T02:52:31.760Z,9.90
2018-10-18T02:55:00.010Z,9.90
2018-10-18T02:57:28.384Z,9.90
2018-10-18T02:59:56.752Z,9.80
2018-10-18T03:02:25.078Z,9.80
2018-10-18T03:04:53.311Z,9.70
2018-10-18T03:07:21.499Z,9.70
2018-10-18T03:09:49.784Z,9.70
2018-10-18T03:12:18.057Z,9.70
2018-10-18T03:14:46.260Z,9.70
2018-10-18T03:17:14.536Z,9.70
2018-10-18T03:19:42.727Z,9.70
2018-10-18T03:22:10.956Z,9.70
2018-10-18T03:24:39.822Z,9.80
2018-10-18T03:27:07.987Z,9.80
2018-10-18T03:29:36.286Z,9.80
2018-10-18T03:32:07.946Z,9.80
2018-10-18T03:34:36.230Z,9.80
2018-10-18T03:37:04.925Z,9.90
2018-10-18T03:39:33.162Z,9.80
2018-10-18T03:42:01.490Z,9.70
2018-10-18T03:44:29.669Z,9.70
2018-10-18T03:46:57.885Z,9.60
2018-10-18T03:49:26.116Z,9.60
2018-10-18T03:51:54.318Z,9.60
2018-10-18T03:54:22.509Z,9.60
2018-10-18T03:56:50.785Z,9.60
2018-10-18T03:59:19.005Z,9.60
2018-10-18T04:01:47.259Z,9.60
2018-10-18T04:04:15.460Z,9.50
2018-10-18T04:06:43.725Z,9.50
2018-10-18T04:09:18.550Z,9.50
2018-10-18T04:11:46.746Z,9.50
2018-10-18T04:14:14.964Z,9.40
2018-10-18T04:16:43.154Z,9.40
2018-10-18T04:19:11.518Z,9.40
2018-10-18T04:21:39.689Z,9.40
2018-10-18T04:24:07.993Z,9.40
2018-10-18T04:26:36.338Z,9.50
2018-10-18T04:29:04.743Z,9.40
2018-10-18T04:31:32.977Z,9.40
2018-10-18T04:34:01.273Z,9.40
2018-10-18T04:36:29.554Z,9.30
2018-10-18T04:38:57.822Z,9.30
2018-10-18T04:41:26.014Z,9.30
2018-10-18T04:43:54.461Z,9.20
2018-10-18T04:46:22.721Z,9.20
2018-10-18T04:48:50.997Z,9.20
2018-10-18T04:51:19.276Z,9.30
2018-10-18T04:53:47.574Z,9.30
2018-10-18T04:56:16.017Z,9.30
2018-10-18T04:58:44.288Z,9.40
2018-10-18T05:01:15.684Z,9.40
2018-10-18T05:03:44.447Z,9.40
2018-10-18T05:06:19.050Z,9.40
2018-10-18T05:08:47.329Z,9.40
2018-10-18T05:11:15.706Z,9.50
2018-10-18T05:13:44.021Z,9.50
2018-10-18T05:16:12.323Z,9.50
2018-10-18T05:18:41.533Z,9.50
2018-10-18T05:21:09.801Z,9.50
2018-10-18T05:23:38.066Z,9.50
2018-10-18T05:26:08.020Z,9.50
2018-10-18T05:28:36.409Z,9.40
2018-10-18T05:31:08.536Z,9.30
2018-10-18T05:33:36.750Z,9.30
2018-10-18T05:36:05.109Z,9.20
2018-10-18T05:38:33.371Z,9.20
2018-10-18T05:41:01.689Z,9.30
2018-10-18T05:43:29.910Z,9.40
2018-10-18T05:45:58.167Z,9.40
2018-10-18T05:48:26.460Z,9.30
2018-10-18T05:50:54.711Z,9.30
2018-10-18T05:53:23.002Z,9.30
2018-10-18T05:55:53.307Z,9.30
2018-10-18T05:58:21.617Z,9.30
2018-10-18T06:00:49.819Z,9.30
2018-10-18T06:03:18.033Z,9.30
2018-10-18T06:05:47.757Z,9.40
2018-10-18T06:08:16.033Z,9.40
2018-10-18T06:10:55.486Z,9.50
2018-10-18T06:13:23.779Z,9.50
2018-10-18T06:15:52.013Z,9.50
2018-10-18T06:18:20.253Z,9.60
2018-10-18T06:20:48.513Z,9.60
2018-10-18T06:23:17.074Z,9.60
2018-10-18T06:25:45.191Z,9.60
2018-10-18T06:28:13.405Z,9.60
2018-10-18T06:30:41.639Z,9.60
2018-10-18T06:33:09.973Z,9.60
2018-10-18T06:35:38.225Z,9.70
2018-10-18T06:38:06.478Z,9.70
2018-10-18T06:40:34.911Z,9.80
2018-10-18T06:43:03.251Z,9.80
2018-10-18T06:45:31.465Z,9.80
2018-10-18T06:47:59.771Z,9.90
2018-10-18T06:50:28.057Z,10.00
2018-10-18T06:52:56.269Z,10.10
2018-10-18T06:55:24.569Z,10.20
2018-10-18T06:57:52.937Z,10.30
2018-10-18T07:00:23.265Z,10.30
2018-10-18T07:02:52.033Z,10.40
2018-10-18T07:05:20.246Z,10.50
2018-10-18T07:07:48.483Z,10.70
2018-10-18T07:10:16.794Z,10.80
2018-10-18T07:12:45.018Z,11.00
2018-10-18T07:15:14.504Z,11.10
2018-10-18T07:17:43.475Z,11.30
2018-10-18T07:20:12.492Z,11.50
2018-10-18T07:22:41.233Z,11.70
2018-10-18T07:25:13.750Z,11.80
2018-10-18T07:27:42.328Z,11.80
2018-10-18T07:30:12.009Z,11.80
2018-10-18T07:32:40.481Z,11.80
2018-10-18T07:35:09.794Z,11.70
2018-10-18T07:37:38.260Z,11.60
2018-10-18T07:40:08.646Z,11.60
2018-10-18T07:42:37.051Z,11.50
2018-10-18T07:45:05.698Z,11.40
2018-10-18T07:47:33.916Z,11.30
2018-10-18T07:50:02.264Z,11.30
2018-10-18T07:52:30.538Z,11.30
2018-10-18T07:54:58.912Z,11.30
2018-10-18T07:57:27.132Z,11.40
2018-10-18T07:59:55.489Z,11.50
2018-10-18T08:02:23.767Z,11.60
2018-10-18T08:04:52.023Z,11.70
2018-10-18T08:07:20.237Z,11.70
2018-10-18T08:09:48.569Z,11.80
2018-10-18T08:12:16.887Z,11.80
2018-10-18T08:14:45.150Z,12.00
2018-10-18T08:17:13.593Z,12.00
2018-10-18T08:19:41.825Z,12.10
2018-10-18T08:22:10.103Z,12.20
2018-10-18T08:24:38.440Z,12.20
2018-10-18T08:27:06.726Z,12.30
2018-10-18T08:29:35.006Z,12.40
2018-10-18T08:32:03.276Z,12.60
2018-10-18T08:34:31.563Z,12.70
2018-10-18T08:36:59.862Z,12.70
2018-10-18T08:39:28.106Z,12.80
2018-10-18T08:41:57.496Z,13.10
2018-10-18T08:44:25.906Z,13.30
2018-10-18T08:46:54.157Z,13.50
2018-10-18T08:49:22.455Z,13.60
2018-10-18T08:51:50.773Z,13.80
2018-10-18T08:54:19.026Z,13.90
2018-10-18T08:56:47.254Z,13.90
2018-10-18T08:59:15.697Z,14.20
2018-10-18T09:01:44.003Z,14.60
2018-10-18T09:04:12.260Z,15.50
2018-10-18T09:06:40.513Z,16.40
2018-10-18T09:09:09.502Z,17.10
2018-10-18T09:11:37.964Z,17.70
2018-10-18T09:14:13.258Z,17.90
2018-10-18T09:16:41.557Z,18.40
2018-10-18T09:19:09.886Z,18.20
2018-10-18T09:21:38.103Z,17.80
2018-10-18T09:24:06.409Z,17.10
2018-10-18T09:26:34.673Z,16.90
2018-10-18T09:29:02.933Z,17.30
2018-10-18T09:31:31.151Z,17.40
2018-10-18T09:33:59.485Z,17.10
2018-10-18T09:36:27.751Z,17.40
2018-10-18T09:38:55.988Z,17.20
2018-10-18T09:41:24.281Z,17.10
2018-10-18T09:44:02.188Z,17.30
2018-10-18T09:46:31.072Z,17.70
2018-10-18T09:48:59.567Z,18.30
2018-10-18T09:51:27.798Z,18.30
2018-10-18T09:53:56.063Z,18.20
2018-10-18T09:56:24.348Z,18.60
2018-10-18T09:58:52.801Z,19.00
2018-10-18T10:01:26.416Z,19.60
2018-10-18T10:03:54.664Z,19.30
2018-10-18T10:06:22.992Z,18.80
2018-10-18T10:08:51.225Z,18.50
2018-10-18T10:11:19.734Z,18.40
2018-10-18T10:13:48.071Z,18.40
2018-10-18T10:16:17.006Z,18.60
2018-10-18T10:18:45.234Z,18.60
2018-10-18T10:21:13.584Z,18.20
2018-10-18T10:23:41.796Z,18.10
2018-10-18T10:26:10.051Z,17.10
2018-10-18T10:28:38.323Z,16.80
2018-10-18T10:31:07.768Z,17.00
2018-10-18T10:33:35.931Z,17.10
2018-10-18T10:36:04.417Z,16.80
2018-10-18T10:38:32.753Z,16.70
2018-10-18T10:41:01.012Z,16.40
2018-10-18T10:43:29.245Z,16.50
2018-10-18T10:45:57.443Z,16.50
2018-10-18T10:48:25.651Z,16.90
2018-10-18T10:50:53.905Z,17.20
2018-10-18T10:53:22.402Z,16.70
2018-10-18T10:55:51.169Z,16.50
2018-10-18T10:58:19.500Z,16.10
2018-10-18T11:01:08.426Z,15.40
2018-10-18T11:03:37.173Z,15.50
2018-10-18T11:06:05.495Z,15.50
2018-10-18T11:08:34.232Z,15.50
2018-10-18T11:11:02.526Z,15.30
2018-10-18T11:13:30.974Z,15.00
2018-10-18T11:16:00.793Z,14.80
2018-10-18T11:18:29.095Z,14.90
2018-10-18T11:20:57.425Z,14.90
2018-10-18T11:23:25.836Z,15.00
2018-10-18T11:25:54.099Z,15.40
2018-10-18T11:28:22.307Z,15.00
2018-10-18T11:30:50.572Z,15.00
2018-10-18T11:33:18.903Z,14.90
2018-10-18T11:35:47.104Z,15.00
2018-10-18T11:38:15.683Z,14.70
2018-10-18T11:40:44.001Z,14.70
2018-10-18T11:43:12.684Z,14.70
2018-10-18T11:45:41.243Z,14.60
2018-10-18T11:48:11.149Z,14.70
2018-10-18T11:50:39.738Z,14.80
2018-10-18T11:53:07.972Z,15.30
2018-10-18T11:55:36.543Z,15.30
2018-10-18T11:58:05.282Z,15.20
2018-10-18T12:00:33.502Z,15.50
2018-10-18T12:03:01.880Z,15.30
2018-10-18T12:05:30.201Z,15.30
2018-10-18T12:07:58.666Z,15.20
2018-10-18T12:10:26.878Z,15.60
2018-10-18T12:12:55.200Z,16.10
2018-10-18T12:15:23.401Z,16.20
2018-10-18T12:17:51.659Z,16.30
2018-10-18T12:20:19.940Z,16.30
2018-10-18T12:22:48.193Z,16.20
2018-10-18T12:25:16.407Z,15.90
2018-10-18T12:27:45.017Z,15.70
2018-10-18T12:30:13.810Z,15.60
2018-10-18T12:32:42.045Z,15.30
2018-10-18T12:35:10.348Z,15.10
2018-10-18T12:37:38.570Z,15.10
2018-10-18T12:40:08.094Z,15.00
2018-10-18T12:42:37.760Z,14.90
2018-10-18T12:45:07.968Z,14.50
2018-10-18T12:47:36.273Z,14.30
2018-10-18T12:50:05.043Z,14.50
2018-10-18T12:52:33.201Z,14.30
2018-10-18T12:55:01.765Z,14.40
2018-10-18T12:57:30.065Z,14.20
2018-10-18T12:59:58.417Z,14.20
2018-10-18T13:02:27.003Z,14.20
2018-10-18T13:04:55.329Z,14.00
2018-10-18T13:07:23.668Z,13.90
2018-10-18T13:09:51.997Z,13.90
2018-10-18T13:12:20.384Z,13.70
2018-10-18T13:14:48.537Z,13.70
2018-10-18T13:17:16.864Z,13.70
2018-10-18T13:19:45.197Z,13.70
2018-10-18T13:22:13.520Z,13.60
2018-10-18T13:24:41.802Z,13.60
2018-10-18T13:27:10.147Z,13.70
2018-10-18T13:29:38.473Z,13.80
2018-10-18T13:32:06.773Z,13.90
2018-10-18T13:34:35.109Z,13.90
2018-10-18T13:37:03.477Z,13.80
2018-10-18T13:39:31.708Z,13.80
2018-10-18T13:42:00.047Z,13.60
2018-10-18T13:44:28.319Z,13.60
2018-10-18T13:46:56.740Z,13.60
2018-10-18T13:49:25.017Z,13.70
2018-10-18T13:51:53.232Z,13.80
2018-10-18T13:54:21.534Z,13.80
2018-10-18T13:56:49.837Z,13.70
2018-10-18T13:59:29.661Z,13.80
2018-10-18T14:01:58.062Z,13.80
2018-10-18T14:04:26.286Z,13.90
2018-10-18T14:06:54.538Z,13.90
2018-10-18T14:09:22.849Z,13.90
2018-10-18T14:11:51.117Z,13.90
2018-10-18T14:14:19.364Z,13.90
2018-10-18T14:16:47.616Z,13.90
2018-10-18T14:19:15.813Z,13.90
2018-10-18T14:21:44.007Z,13.90
2018-10-18T14:24:12.241Z,14.00
2018-10-18T14:26:40.518Z,14.00
2018-10-18T14:29:08.806Z,14.00
2018-10-18T14:31:37.003Z,14.10
2018-10-18T14:34:06.100Z,14.10
2018-10-18T14:36:34.359Z,14.10
2018-10-18T14:39:03.038Z,14.10
2018-10-18T14:41:31.467Z,14.10
2018-10-18T14:44:06.374Z,14.00
2018-10-18T14:46:34.693Z,14.10
2018-10-18T14:49:03.016Z,14.10
2018-10-18T14:51:31.301Z,14.10
2018-10-18T14:53:59.620Z,14.10
2018-10-18T14:56:27.898Z,14.00
2018-10-18T14:58:56.311Z,14.00
2018-10-18T15:01:24.574Z,14.00
2018-10-18T15:03:59.376Z,14.00
2018-10-18T15:06:27.866Z,14.10
2018-10-18T15:08:56.164Z,14.00
2018-10-18T15:11:24.460Z,14.00
2018-10-18T15:13:53.205Z,14.00
2018-10-18T15:16:21.814Z,14.00
2018-10-18T15:18:50.208Z,14.00
2018-10-18T15:21:18.508Z,14.00
2018-10-18T15:23:47.182Z,14.00
2018-10-18T15:26:15.776Z,14.00
2018-10-18T15:28:44.323Z,14.00
2018-10-18T15:31:12.993Z,14.00
2018-10-18T15:33:41.245Z,14.00
2018-10-18T15:36:10.541Z,14.00
2018-10-18T15:38:39.562Z,13.90
2018-10-18T15:41:07.901Z,13.90
2018-10-18T15:43:36.640Z,14.00
2018-10-18T15:46:05.551Z,14.00
2018-10-18T15:48:41.806Z,14.00
2018-10-18T15:51:10.739Z,14.00
2018-10-18T15:53:39.006Z,14.00
2018-10-18T15:56:07.342Z,14.00
2018-10-18T15:58:35.855Z,14.00
2018-10-18T16:01:04.312Z,14.00
2018-10-18T16:03:33.119Z,13.90
2018-10-18T16:06:01.375Z,14.00
2018-10-18T16:08:29.675Z,14.00
2018-10-18T16:10:58.114Z,14.00
2018-10-18T16:13:26.467Z,14.00
2018-10-18T16:15:54.654Z,14.00
2018-10-18T16:18:22.963Z,14.10
2018-10-18T16:20:51.291Z,14.10
2018-10-18T16:23:19.867Z,14.10
2018-10-18T16:25:48.229Z,14.10
2018-10-18T16:28:16.492Z,14.10
2018-10-18T16:30:44.736Z,14.10
2018-10-18T16:33:12.962Z,14.10
2018-10-18T16:35:47.762Z,14.10
2018-10-18T16:38:16.203Z,14.10
2018-10-18T16:40:44.661Z,14.10
2018-10-18T16:43:13.570Z,14.00
2018-10-18T16:45:41.890Z,14.10
2018-10-18T16:48:10.746Z,14.10
2018-10-18T16:50:39.239Z,14.00
2018-10-18T16:53:07.949Z,13.90
2018-10-18T16:55:36.190Z,13.80
2018-10-18T16:58:04.648Z,13.80
2018-10-18T17:00:33.091Z,13.70
2018-10-18T17:03:01.417Z,13.70
2018-10-18T17:05:29.984Z,13.70
2018-10-18T17:07:58.402Z,13.70
2018-10-18T17:10:26.941Z,13.70
2018-10-18T17:12:55.315Z,13.60
2018-10-18T17:15:23.577Z,13.50
2018-10-18T17:17:51.940Z,13.50
2018-10-18T17:20:20.249Z,13.50
2018-10-18T17:22:48.473Z,13.50
2018-10-18T17:25:16.763Z,13.40
2018-10-18T17:27:45.149Z,13.40
2018-10-18T17:30:13.388Z,13.40
2018-10-18T17:32:41.639Z,13.40
2018-10-18T17:35:09.939Z,13.30
2018-10-18T17:37:38.360Z,13.30
2018-10-18T17:40:07.274Z,13.30
2018-10-18T17:42:35.733Z,13.30
2018-10-18T17:45:04.029Z,13.30
2018-10-18T17:47:32.389Z,13.20
2018-10-18T17:50:00.710Z,13.20
2018-10-18T17:52:28.982Z,13.10
2018-10-18T17:54:57.223Z,13.20
2018-10-18T17:57:25.483Z,13.20
2018-10-18T17:59:53.843Z,13.20
2018-10-18T18:02:22.353Z,13.20
2018-10-18T18:04:50.782Z,13.10
2018-10-18T18:07:19.402Z,13.20
2018-10-18T18:09:47.706Z,13.20
2018-10-18T18:12:16.120Z,13.30
2018-10-18T18:14:44.456Z,13.20
2018-10-18T18:17:12.697Z,13.20
2018-10-18T18:19:41.104Z,13.20
2018-10-18T18:22:09.655Z,13.20
2018-10-18T18:24:38.026Z,13.20
2018-10-18T18:27:06.403Z,13.20
2018-10-18T18:29:34.715Z,13.20
2018-10-18T18:32:03.064Z,13.20
2018-10-18T18:34:31.319Z,13.20
2018-10-18T18:36:59.693Z,13.10
2018-10-18T18:39:28.199Z,13.10
2018-10-18T18:41:56.521Z,13.10
2018-10-18T18:44:24.869Z,13.10
2018-10-18T18:46:53.234Z,13.10
2018-10-18T18:49:21.644Z,13.10
2018-10-18T18:51:49.933Z,13.10
2018-10-18T18:54:18.359Z,13.10
2018-10-18T18:56:46.742Z,13.10
2018-10-18T18:59:15.111Z,13.10
2018-10-18T19:01:43.579Z,13.10
2018-10-18T19:04:11.914Z,13.10
2018-10-18T19:06:41.160Z,13.10
2018-10-18T19:09:10.095Z,13.10
2018-10-18T19:11:38.752Z,13.10
2018-10-18T19:14:07.763Z,13.10
2018-10-18T19:16:36.143Z,13.10
2018-10-18T19:19:04.700Z,13.10
2018-10-18T19:21:33.066Z,13.00
2018-10-18T19:24:01.396Z,13.10
2018-10-18T19:26:29.680Z,13.00
2018-10-18T19:28:57.960Z,13.00
2018-10-18T19:31:26.390Z,13.00
2018-10-18T19:33:54.936Z,13.00
2018-10-18T19:36:23.230Z,13.00
2018-10-18T19:38:51.524Z,12.90
2018-10-18T19:41:19.972Z,13.00
2018-10-18T19:43:48.327Z,13.00
2018-10-18T19:46:16.884Z,13.00
2018-10-18T19:48:45.098Z,13.00
2018-10-18T19:51:13.640Z,13.00
2018-10-18T19:53:41.962Z,13.00
2018-10-18T19:56:10.422Z,12.90
2018-10-18T19:58:38.744Z,12.90
2018-10-18T20:01:07.176Z,12.90
2018-10-18T20:03:35.490Z,12.80
2018-10-18T20:06:03.803Z,12.80
2018-10-18T20:08:32.166Z,12.90
2018-10-18T20:11:00.552Z,12.90
2018-10-18T20:13:28.880Z,12.90
2018-10-18T20:15:57.173Z,12.90
2018-10-18T20:18:25.532Z,12.90
2018-10-18T20:20:53.817Z,12.80
2018-10-18T20:23:22.221Z,12.80
2018-10-18T20:25:50.815Z,12.90
2018-10-18T20:28:18.944Z,12.80
2018-10-18T20:30:47.294Z,12.80
2018-10-18T20:33:15.621Z,12.80
2018-10-18T20:35:43.963Z,12.80
2018-10-18T20:38:12.148Z,12.80
2018-10-18T20:40:40.370Z,12.80
2018-10-18T20:43:08.649Z,12.80
2018-10-18T20:45:37.388Z,12.80
2018-10-18T20:48:05.963Z,12.80
2018-10-18T20:50:34.042Z,12.80
2018-10-18T20:53:02.493Z,12.80
2018-10-18T20:55:30.721Z,12.80
2018-10-18T20:57:59.059Z,12.80
2018-10-18T21:00:27.298Z,12.80
2018-10-18T21:02:55.905Z,12.80
2018-10-18T21:05:24.061Z,12.80
2018-10-18T21:07:52.328Z,12.80
2018-10-18T21:10:20.631Z,12.80
2018-10-18T21:12:48.890Z,12.80
2018-10-18T21:15:17.268Z,12.70
2018-10-18T21:17:45.721Z,12.70
2018-10-18T21:20:13.935Z,12.70
2018-10-18T21:22:42.139Z,12.70
2018-10-18T21:25:10.409Z,12.70
2018-10-18T21:27:38.680Z,12.60
2018-10-18T21:30:07.341Z,12.60
2018-10-18T21:32:35.571Z,12.70
2018-10-18T21:35:03.940Z,12.60
2018-10-18T21:37:32.681Z,12.60
2018-10-18T21:40:00.990Z,12.60
2018-10-18T21:42:29.241Z,12.60
2018-10-18T21:44:57.494Z,12.60
2018-10-18T21:47:26.018Z,12.50
2018-10-18T21:49:54.237Z,12.50
2018-10-18T21:52:22.556Z,12.50
2018-10-18T21:54:50.800Z,12.50
2018-10-18T21:57:19.028Z,12.40
2018-10-18T21:59:47.299Z,12.30
2018-10-18T22:02:15.615Z,12.30
2018-10-18T22:04:43.891Z,12.30
2018-10-18T22:07:12.109Z,12.30
2018-10-18T22:09:40.416Z,12.20
2018-10-18T22:12:08.622Z,12.20
2018-10-18T22:14:36.885Z,12.20
2018-10-18T22:17:05.934Z,12.30
2018-10-18T22:19:34.231Z,12.30
2018-10-18T22:22:02.609Z,12.30
2018-10-18T22:24:30.818Z,12.20
2018-10-18T22:26:59.188Z,12.10
2018-10-18T22:29:27.390Z,12.20
2018-10-18T22:31:55.575Z,12.10
2018-10-18T22:34:23.747Z,12.10
2018-10-18T22:36:51.951Z,12.00
2018-10-18T22:39:20.212Z,12.00
2018-10-18T22:41:48.432Z,12.00
2018-10-18T22:44:16.644Z,12.00
2018-10-18T22:46:44.920Z,12.00
2018-10-18T22:49:13.119Z,12.00
2018-10-18T22:51:41.402Z,11.90
2018-10-18T22:54:09.608Z,11.90
2018-10-18T22:56:37.921Z,12.00
2018-10-18T22:59:06.218Z,11.90
2018-10-18T23:01:34.562Z,11.80
2018-10-18T23:04:02.733Z,11.80
2018-10-18T23:06:37.660Z,11.80
2018-10-18T23:09:08.439Z,11.80
2018-10-18T23:11:36.675Z,11.60
2018-10-18T23:14:05.432Z,11.60
2018-10-18T23:16:40.388Z,11.60
2018-10-18T23:19:09.621Z,11.60
2018-10-18T23:21:37.906Z,11.60
2018-10-18T23:24:06.529Z,11.60
2018-10-18T23:26:34.764Z,11.60
2018-10-18T23:29:03.086Z,11.50
2018-10-18T23:31:31.270Z,11.50
2018-10-18T23:33:59.566Z,11.40
2018-10-18T23:36:27.812Z,11.40
2018-10-18T23:38:56.115Z,11.40
2018-10-18T23:41:24.275Z,11.30
2018-10-18T23:43:52.549Z,11.30
2018-10-18T23:46:20.915Z,11.30
2018-10-18T23:48:49.248Z,11.30
2018-10-18T23:51:17.514Z,11.20
2018-10-18T23:53:45.730Z,11.10
2018-10-18T23:56:13.961Z,11.10
2018-10-18T23:58:42.534Z,11.10
